createdAt,value
2023-04-26T00:01:02.987Z,101013.98000000001
2023-04-26T00:04:56.927Z,101001.58
2023-04-26T00:08:55.461Z,101004.61
2023-04-26T00:12:55.058Z,100998.79
2023-04-26T00:16:55.360Z,100990.95
2023-04-26T00:20:55.040Z,100988.11
2023-04-26T00:24:55.177Z,100983.93
2023-04-26T00:36:55.555Z,100973.55
2023-04-26T00:40:55.049Z,100972.5
2023-04-26T00:48:55.345Z,100978.83
2023-04-26T00:52:56.586Z,100975.01999999999
2023-04-26T00:56:55.396Z,100967.83
2023-04-26T01:00:55.818Z,100964.34000000001
2023-04-26T01:04:55.142Z,100958.37
2023-04-26T01:08:57.166Z,100957.74
2023-04-26T01:12:56.892Z,100959.38
2023-04-26T01:16:56.151Z,100958.83
2023-04-26T01:20:55.950Z,100954.44
2023-04-26T01:24:57.060Z,100948.55
2023-04-26T01:28:55.349Z,100950.3
2023-04-26T01:32:55.451Z,100946.01
2023-04-26T01:36:55.294Z,100941.25
2023-04-26T01:40:55.247Z,100939.11
2023-04-26T01:44:55.176Z,100939.69
2023-04-26T01:48:56.304Z,100939.04
2023-04-26T01:52:55.276Z,100931.05
2023-04-26T01:56:55.263Z,100936.01999999999
2023-04-26T02:00:55.559Z,100938.73
2023-04-26T02:04:55.526Z,100940.11
2023-04-26T02:08:56.218Z,100930.24
2023-04-26T02:12:55.424Z,100932.64
2023-04-26T02:16:56.099Z,100931.87000000001
2023-04-26T02:20:55.608Z,100936.46
2023-04-26T02:24:55.313Z,100928.38
2023-04-26T02:28:55.489Z,100924.37
2023-04-26T02:32:55.646Z,100917.86
2023-04-26T02:36:55.685Z,100918.29000000001
2023-04-26T02:40:58.356Z,100921.11
2023-04-26T02:44:55.721Z,100909.06999999999
2023-04-26T02:48:55.413Z,100902.5
2023-04-26T02:52:55.641Z,100904.3
2023-04-26T02:56:55.420Z,100911.5
2023-04-26T03:00:59.512Z,100915.78
2023-04-26T03:04:55.487Z,100908.04000000001
2023-04-26T03:08:55.532Z,100906.69
2023-04-26T03:12:55.562Z,100896.09
2023-04-26T03:24:56.105Z,100909.93999999999
2023-04-26T03:28:55.726Z,100913.06
2023-04-26T03:32:56.600Z,100897.36
2023-04-26T03:36:55.944Z,100890.81
2023-04-26T03:40:55.801Z,100891.65000000001
2023-04-26T03:44:55.581Z,100887.14
2023-04-26T03:48:55.654Z,100885.02
2023-04-26T03:52:55.605Z,100885.82
2023-04-26T03:56:55.879Z,100888.59
2023-04-26T04:00:56.377Z,100886.84
2023-04-26T04:04:56.429Z,100889.69
2023-04-26T04:08:55.780Z,100883.08
2023-04-26T04:12:56.008Z,100881.91
2023-04-26T04:16:55.770Z,100879.21
2023-04-26T04:20:55.887Z,100876.79000000001
2023-04-26T04:24:56.462Z,100874.17
2023-04-26T04:28:56.524Z,100875.36
2023-04-26T04:32:58.274Z,100873.99
2023-04-26T04:36:55.800Z,100878.12
2023-04-26T04:40:56.048Z,100873.87999999999
2023-04-26T04:44:56.255Z,100870.08
2023-04-26T04:48:55.770Z,100869.11
2023-04-26T04:52:55.731Z,100869.48999999999
2023-04-26T04:56:56.492Z,100879.49
2023-04-26T05:00:55.906Z,100884.56
2023-04-26T05:04:56.144Z,100884.84
2023-04-26T05:08:55.746Z,100879.40999999999
2023-04-26T05:16:56.653Z,100865.73
2023-04-26T05:20:56.622Z,100861.78
2023-04-26T05:24:56.022Z,100861.22
2023-04-26T05:28:55.772Z,100866.49
2023-04-26T05:32:56.208Z,100866.95999999999
2023-04-26T05:36:55.937Z,100870.64
2023-04-26T05:40:56.013Z,100869.83
2023-04-26T05:44:57.125Z,100875.35
2023-04-26T05:48:56.176Z,100869.8
2023-04-26T05:52:55.826Z,100869.7
2023-04-26T05:56:58.360Z,100873.42
2023-04-26T06:00:56.358Z,100884.7
2023-04-26T06:04:56.433Z,100891.11
2023-04-26T06:08:55.974Z,100892.31
2023-04-26T06:12:56.231Z,100896.88
2023-04-26T06:16:56.000Z,100899.62000000001
2023-04-26T06:20:56.106Z,100901.0
2023-04-26T06:24:56.122Z,100899.05
2023-04-26T06:28:56.207Z,100898.15999999999
2023-04-26T06:32:58.051Z,100900.35
2023-04-26T06:36:56.236Z,100898.41
2023-04-26T06:40:55.976Z,100893.09
2023-04-26T06:44:57.268Z,100889.17
2023-04-26T06:48:56.026Z,100888.69
2023-04-26T06:52:56.430Z,100883.09000000001
2023-04-26T06:56:56.292Z,100885.47
2023-04-26T07:00:56.107Z,100884.66
2023-04-26T07:04:56.835Z,100887.64
2023-04-26T07:08:58.205Z,100892.67
2023-04-26T07:12:56.120Z,100892.97
2023-04-26T07:16:56.183Z,100891.81999999999
2023-04-26T07:20:56.102Z,100885.85
2023-04-26T07:24:56.412Z,100884.72
2023-04-26T07:28:56.233Z,100885.88
2023-04-26T07:32:56.318Z,100887.66
2023-04-26T07:36:56.399Z,100889.28
2023-04-26T07:40:56.346Z,100895.67
2023-04-26T07:44:56.306Z,100899.92
2023-04-26T07:48:56.354Z,100901.09
2023-04-26T07:52:56.619Z,100895.58
2023-04-26T07:56:56.496Z,100893.55
2023-04-26T08:00:56.379Z,100889.29000000001
2023-04-26T08:04:56.733Z,100892.46
2023-04-26T08:08:56.449Z,100897.09
2023-04-26T08:12:56.577Z,100895.2
2023-04-26T08:16:56.313Z,100894.20999999999
2023-04-26T08:24:56.373Z,100891.15000000001
2023-04-26T08:28:56.644Z,100896.63
2023-04-26T08:32:56.517Z,100890.48
2023-04-26T08:36:56.304Z,100887.41
2023-04-26T08:41:00.796Z,100886.72
2023-04-26T08:45:00.774Z,100888.2
2023-04-26T08:49:09.926Z,100888.75
2023-04-26T08:52:56.358Z,100882.05
2023-04-26T08:56:58.399Z,100879.38
2023-04-26T09:00:57.946Z,100879.86
2023-04-26T09:04:56.776Z,100884.05
2023-04-26T09:08:57.097Z,100889.48000000001
2023-04-26T09:12:56.858Z,100888.2
2023-04-26T09:16:56.661Z,100889.26
2023-04-26T09:21:05.868Z,100886.56
2023-04-26T09:24:56.789Z,100883.73
2023-04-26T09:29:14.052Z,100892.17
2023-04-26T09:32:58.318Z,100887.5
2023-04-26T09:36:56.600Z,100891.11
2023-04-26T09:40:58.473Z,100892.96
2023-04-26T09:45:04.896Z,100894.05
2023-04-26T09:49:00.558Z,100899.55
2023-04-26T09:52:57.247Z,100895.34
2023-04-26T09:57:00.657Z,100889.01
2023-04-26T10:00:58.338Z,100884.5
2023-04-26T10:04:58.913Z,100882.29
2023-04-26T10:08:56.966Z,100879.78
2023-04-26T10:12:56.727Z,100873.85
2023-04-26T10:16:57.505Z,100870.25
2023-04-26T10:20:59.439Z,100862.89
2023-04-26T10:24:56.962Z,100866.66
2023-04-26T10:29:01.397Z,100861.78
2023-04-26T10:33:12.846Z,100867.56
2023-04-26T10:37:07.874Z,100861.58
2023-04-26T10:41:16.476Z,100858.73
2023-04-26T10:44:57.581Z,100847.22
2023-04-26T10:48:56.876Z,100846.57999999999
2023-04-26T10:53:04.698Z,100849.27
2023-04-26T10:56:57.013Z,100854.81
2023-04-26T11:01:03.668Z,100852.98
2023-04-26T11:04:57.655Z,100846.08
2023-04-26T11:08:59.072Z,100849.0
2023-04-26T11:13:00.666Z,100844.81
2023-04-26T11:16:56.704Z,100839.25
2023-04-26T11:20:57.870Z,100837.01999999999
2023-04-26T11:24:59.221Z,100829.52
2023-04-26T11:28:56.859Z,100827.45
2023-04-26T11:32:57.770Z,100824.47
2023-04-26T11:36:57.042Z,100824.34
2023-04-26T11:40:58.189Z,100826.34000000001
2023-04-26T11:44:58.616Z,100823.33
2023-04-26T11:48:57.334Z,100823.61
2023-04-26T11:52:59.540Z,100828.19
2023-04-26T11:56:57.904Z,100822.31
2023-04-26T12:00:57.588Z,100825.16
2023-04-26T12:04:58.320Z,100817.53
2023-04-26T12:08:57.066Z,100822.34
2023-04-26T12:12:59.126Z,100820.01000000001
2023-04-26T12:16:58.794Z,100821.84
2023-04-26T12:20:58.359Z,100821.93
2023-04-26T12:25:04.141Z,100822.42
2023-04-26T12:33:05.820Z,100823.47
2023-04-26T12:36:56.973Z,100817.14
2023-04-26T12:40:57.019Z,100820.48999999999
2023-04-26T12:44:56.995Z,100818.87000000001
2023-04-26T12:48:57.141Z,100816.58
2023-04-26T12:52:57.027Z,100819.26
2023-04-26T12:56:57.168Z,100821.89
2023-04-26T13:00:57.156Z,100821.83
2023-04-26T13:04:57.307Z,100818.3
2023-04-26T13:08:57.071Z,100825.84000000001
2023-04-26T13:12:57.464Z,100828.56
2023-04-26T13:16:57.266Z,100824.05
2023-04-26T13:20:57.195Z,100821.24
2023-04-26T13:24:57.132Z,100820.79
2023-04-26T13:28:57.615Z,100818.52
2023-04-26T13:32:59.962Z,100816.83
2023-04-26T13:36:57.985Z,100817.25
2023-04-26T13:40:57.146Z,100821.45000000001
2023-04-26T13:44:57.246Z,100818.40999999999
2023-04-26T13:48:57.242Z,100820.75
2023-04-26T13:52:57.320Z,100816.52
2023-04-26T13:56:57.336Z,100818.42
2023-04-26T14:00:57.353Z,100814.03
2023-04-26T14:04:57.441Z,100810.55
2023-04-26T14:08:57.445Z,100816.27
2023-04-26T14:12:57.293Z,100818.67
2023-04-26T14:16:57.346Z,100815.9
2023-04-26T14:20:57.411Z,100810.93
2023-04-26T14:28:57.706Z,100810.17
2023-04-26T14:37:00.467Z,100805.95
2023-04-26T14:40:57.457Z,100805.69
2023-04-26T14:48:57.517Z,100799.28
2023-04-26T14:56:57.427Z,100800.84000000001
2023-04-26T15:00:57.905Z,100800.34000000001
2023-04-26T15:04:57.602Z,100798.56999999999
2023-04-26T15:08:57.400Z,100796.7
2023-04-26T15:12:57.560Z,100798.5
2023-04-26T15:16:57.623Z,100800.23999999999
2023-04-26T15:20:58.151Z,100799.25
2023-04-26T15:24:57.480Z,100800.06
2023-04-26T15:28:57.889Z,100801.01
2023-04-26T15:32:57.935Z,100795.4
2023-04-26T15:36:59.071Z,100791.69
2023-04-26T15:40:57.455Z,100791.04
2023-04-26T15:44:57.605Z,100787.81
2023-04-26T15:48:57.516Z,100793.94
2023-04-26T15:52:57.672Z,100792.25
2023-04-26T15:56:57.827Z,100786.39
2023-04-26T16:00:57.715Z,100784.72
2023-04-26T16:04:57.638Z,100783.81000000001
2023-04-26T16:08:57.693Z,100785.61
2023-04-26T16:12:57.884Z,100793.66
2023-04-26T16:16:58.740Z,100794.62
2023-04-26T16:21:02.499Z,100795.58
2023-04-26T16:24:58.253Z,100798.1
2023-04-26T16:28:57.638Z,100801.45999999999
2023-04-26T16:32:58.009Z,100801.45
2023-04-26T16:36:57.624Z,100808.73
2023-04-26T16:41:00.506Z,100814.04
2023-04-26T16:44:57.647Z,100812.23
2023-04-26T16:48:58.351Z,100812.56
2023-04-26T16:52:57.779Z,100809.66
2023-04-26T16:56:57.884Z,100813.95
2023-04-26T17:04:58.146Z,100812.78
2023-04-26T17:08:57.677Z,100814.97
2023-04-26T17:12:58.945Z,100811.6
2023-04-26T17:16:58.405Z,100805.31999999999
2023-04-26T17:20:57.791Z,100803.52
2023-04-26T17:24:57.786Z,100812.45
2023-04-26T17:28:58.159Z,100813.62000000001
2023-04-26T17:32:57.894Z,100815.37
2023-04-26T17:36:58.011Z,100811.17
2023-04-26T17:40:58.618Z,100807.47
2023-04-26T17:44:58.191Z,100808.59
2023-04-26T17:48:58.739Z,100811.32
2023-04-26T17:52:57.956Z,100809.56
2023-04-26T17:56:57.937Z,100805.44
2023-04-26T18:00:57.931Z,100815.19
2023-04-26T18:08:58.419Z,100814.33
2023-04-26T18:12:57.987Z,100814.12
2023-04-26T18:16:58.516Z,100814.47
2023-04-26T18:20:58.023Z,100810.65
2023-04-26T18:24:58.474Z,100815.01
2023-04-26T18:28:57.894Z,100819.87000000001
2023-04-26T18:32:58.487Z,100820.6
2023-04-26T18:36:58.064Z,100828.91
2023-04-26T18:40:58.263Z,100829.26999999999
2023-04-26T18:44:59.935Z,100821.89
2023-04-26T18:49:00.238Z,100813.59999999999
2023-04-26T18:52:57.980Z,100811.3
2023-04-26T18:56:58.358Z,100813.54
2023-04-26T19:00:58.258Z,100816.57
2023-04-26T19:04:58.483Z,100818.48
2023-04-26T19:08:58.678Z,100819.9
2023-04-26T19:12:58.218Z,100820.48
2023-04-26T19:16:58.804Z,100821.09
2023-04-26T19:21:02.355Z,100827.84
2023-04-26T19:24:58.073Z,100829.22
2023-04-26T19:28:58.366Z,100838.58
2023-04-26T19:32:58.425Z,100844.04
2023-04-26T19:41:00.225Z,100846.72
2023-04-26T19:44:58.266Z,100852.31
2023-04-26T19:48:58.601Z,100859.41
2023-04-26T19:52:58.190Z,100860.67
2023-04-26T19:56:58.704Z,100862.95
2023-04-26T20:00:58.215Z,100860.20999999999
2023-04-26T20:04:58.449Z,100861.8
2023-04-26T20:08:58.542Z,100858.48
2023-04-26T20:12:59.300Z,100865.08
2023-04-26T20:17:01.105Z,100869.37000000001
2023-04-26T20:20:58.437Z,100864.47
2023-04-26T20:24:58.256Z,100873.35
2023-04-26T20:28:58.455Z,100877.48
2023-04-26T20:32:58.663Z,100875.17
2023-04-26T20:36:58.493Z,100872.78
2023-04-26T20:40:59.373Z,100879.35
2023-04-26T20:45:01.216Z,100880.54
2023-04-26T20:48:58.365Z,100882.95000000001
2023-04-26T20:52:58.585Z,100888.92
2023-04-26T20:56:58.634Z,100890.25
2023-04-26T21:00:58.742Z,100885.63
2023-04-26T21:04:58.484Z,100893.39
2023-04-26T21:08:58.632Z,100896.56
2023-04-26T21:12:58.360Z,100899.58
2023-04-26T21:17:00.027Z,100900.97
2023-04-26T21:20:58.435Z,100903.71
2023-04-26T21:24:58.540Z,100902.43000000001
2023-04-26T21:28:58.460Z,100897.38
2023-04-26T21:32:58.618Z,100898.73999999999
2023-04-26T21:36:58.452Z,100896.41
2023-04-26T21:40:58.687Z,100894.9
2023-04-26T21:44:58.492Z,100896.66
2023-04-26T21:48:58.789Z,100898.6
2023-04-26T21:52:58.569Z,100902.06
2023-04-26T21:56:58.653Z,100904.3
2023-04-26T22:01:06.035Z,100902.70000000001
2023-04-26T22:04:58.734Z,100903.2
2023-04-26T22:12:58.828Z,100894.55
2023-04-26T22:16:58.561Z,100896.15
2023-04-26T22:24:58.846Z,100898.01
2023-04-26T22:37:06.123Z,100905.76999999999
2023-04-26T22:40:58.844Z,100909.73
2023-04-26T22:44:58.668Z,100910.28
2023-04-26T22:48:58.680Z,100910.28
2023-04-26T22:52:58.807Z,100908.84
2023-04-26T22:56:58.677Z,100906.11
2023-04-26T23:00:59.102Z,100908.61
2023-04-26T23:04:59.053Z,100912.51
2023-04-26T23:08:58.798Z,100918.75
2023-04-26T23:12:59.341Z,100918.47
2023-04-26T23:16:58.901Z,100918.7
2023-04-26T23:20:58.869Z,100915.56
2023-04-26T23:24:58.876Z,100911.3
2023-04-26T23:28:58.777Z,100907.06999999999
2023-04-26T23:32:58.921Z,100908.15
2023-04-26T23:36:58.966Z,100908.95000000001
2023-04-26T23:40:58.851Z,100909.86
2023-04-26T23:44:59.033Z,100911.13
2023-04-26T23:48:58.910Z,100916.56
2023-04-26T23:52:58.812Z,100919.01000000001
2023-04-26T23:56:58.937Z,100915.5
